Time,TemperatureF,DewpointF,PressureIn,WindDirection,WindDirectionDegrees,WindSpeedMPH,WindSpeedGustMPH,Humidity,HourlyPrecipIn,Conditions,Clouds,dailyrainin,SolarRadiationWatts/m^2,SoftwareType,DateUTC
2013-01-27 00:01:00,32.0,21.0,-100.00,WNW,282,7.0,11.0,64,0.00,,,0.00,0.000000,,2013-01-27 07:01:00,
2013-01-27 00:14:00,32.0,21.0,-100.00,WNW,282,7.0,11.0,64,0.00,,,0.00,0.000000,,2013-01-27 07:14:00,
2013-01-27 00:21:00,32.0,21.0,-100.00,WNW,282,7.0,11.0,64,0.00,,,0.00,0.000000,,2013-01-27 07:21:00,
2013-01-27 00:31:00,32.0,21.0,-100.00,WNW,282,7.0,11.0,64,0.00,,,0.00,0.000000,,2013-01-27 07:31:00,
2013-01-27 00:52:00,30.0,22.0,-100.00,West,281,6.0,11.0,71,0.00,,,0.00,0.000000,,2013-01-27 07:52:00,
2013-01-27 01:01:00,30.0,22.0,-100.00,West,281,6.0,11.0,71,0.00,,,0.00,0.000000,,2013-01-27 08:01:00,
2013-01-27 01:11:00,30.0,22.0,-100.00,West,281,6.0,11.0,71,0.00,,,0.00,0.000000,,2013-01-27 08:11:00,
2013-01-27 01:22:00,30.0,22.0,-100.00,West,281,6.0,11.0,71,0.00,,,0.00,0.000000,,2013-01-27 08:22:00,
2013-01-27 01:31:00,30.0,22.0,-100.00,West,281,6.0,11.0,71,0.00,,,0.00,0.000000,,2013-01-27 08:31:00,
2013-01-27 02:02:00,32.0,21.0,-100.00,West,279,8.0,13.0,63,0.00,,,0.00,1.000000,,2013-01-27 09:02:00,
2013-01-27 02:11:00,32.0,21.0,-100.00,West,279,8.0,13.0,63,0.00,,,0.00,1.000000,,2013-01-27 09:11:00,
2013-01-27 02:21:00,32.0,21.0,-100.00,West,279,8.0,13.0,63,0.00,,,0.00,1.000000,,2013-01-27 09:21:00,
2013-01-27 02:32:00,32.0,21.0,-100.00,West,279,8.0,13.0,63,0.00,,,0.00,1.000000,,2013-01-27 09:32:00,
2013-01-27 02:52:00,32.0,20.0,-100.00,WNW,286,6.0,12.0,61,0.00,,,0.00,0.000000,,2013-01-27 09:52:00,
2013-01-27 03:01:00,32.0,20.0,-100.00,WNW,286,6.0,12.0,61,0.00,,,0.00,0.000000,,2013-01-27 10:01:00,
2013-01-27 03:11:00,32.0,20.0,-100.00,WNW,286,6.0,12.0,61,0.00,,,0.00,0.000000,,2013-01-27 10:11:00,
2013-01-27 03:21:00,32.0,20.0,-100.00,WNW,286,6.0,12.0,61,0.00,,,0.00,0.000000,,2013-01-27 10:21:00,
2013-01-27 03:31:00,32.0,20.0,-100.00,WNW,286,6.0,12.0,61,0.00,,,0.00,0.000000,,2013-01-27 10:31:00,
2013-01-27 03:52:00,31.0,20.0,-100.00,West,279,6.0,10.0,64,0.00,,,0.00,0.000000,,2013-01-27 10:52:00,
2013-01-27 04:01:00,31.0,20.0,-100.00,West,279,6.0,10.0,64,0.00,,,0.00,0.000000,,2013-01-27 11:01:00,
2013-01-27 04:11:00,31.0,20.0,-100.00,West,279,6.0,10.0,64,0.00,,,0.00,0.000000,,2013-01-27 11:11:00,
2013-01-27 04:21:00,31.0,20.0,-100.00,West,279,6.0,10.0,64,0.00,,,0.00,0.000000,,2013-01-27 11:21:00,
2013-01-27 04:32:00,31.0,20.0,-100.00,West,279,6.0,10.0,64,0.00,,,0.00,0.000000,,2013-01-27 11:32:00,
2013-01-27 04:52:00,30.0,21.0,-100.00,WNW,289,5.0,10.0,68,0.00,,,0.00,0.000000,,2013-01-27 11:52:00,
2013-01-27 05:02:00,30.0,21.0,-100.00,WNW,289,5.0,10.0,68,0.00,,,0.00,0.000000,,2013-01-27 12:02:00,
2013-01-27 05:12:00,30.0,21.0,-100.00,WNW,289,5.0,10.0,68,0.00,,,0.00,0.000000,,2013-01-27 12:12:00,
2013-01-27 05:21:00,30.0,21.0,-100.00,WNW,289,5.0,10.0,68,0.00,,,0.00,0.000000,,2013-01-27 12:21:00,
2013-01-27 05:32:00,30.0,21.0,-100.00,WNW,289,5.0,10.0,68,0.00,,,0.00,0.000000,,2013-01-27 12:32:00,
2013-01-27 06:02:00,32.0,21.0,-100.00,WNW,286,5.0,12.0,64,0.00,,,0.00,0.000000,,2013-01-27 13:02:00,
2013-01-27 06:11:00,32.0,21.0,-100.00,WNW,286,5.0,12.0,64,0.00,,,0.00,0.000000,,2013-01-27 13:11:00,
2013-01-27 06:22:00,32.0,21.0,-100.00,WNW,286,5.0,12.0,64,0.00,,,0.00,0.000000,,2013-01-27 13:22:00,
2013-01-27 06:32:00,32.0,21.0,-100.00,WNW,286,5.0,12.0,64,0.00,,,0.00,0.000000,,2013-01-27 13:32:00,
2013-01-27 06:52:00,32.0,22.0,-100.00,WSW,243,2.0,13.0,65,0.00,,,0.00,0.000000,,2013-01-27 13:52:00,
2013-01-27 07:02:00,32.0,22.0,-100.00,WSW,243,2.0,13.0,65,0.00,,,0.00,0.000000,,2013-01-27 14:02:00,
2013-01-27 07:12:00,32.0,22.0,-100.00,WSW,243,2.0,13.0,65,0.00,,,0.00,0.000000,,2013-01-27 14:12:00,
2013-01-27 07:22:00,32.0,22.0,-100.00,WSW,243,2.0,13.0,65,0.00,,,0.00,0.000000,,2013-01-27 14:22:00,
2013-01-27 07:32:00,32.0,22.0,-100.00,WSW,243,2.0,13.0,65,0.00,,,0.00,0.000000,,2013-01-27 14:32:00,
2013-01-27 08:12:00,33.0,22.0,-100.00,WNW,295,6.0,11.0,64,0.00,,,0.00,2.000000,,2013-01-27 15:12:00,
2013-01-27 08:22:00,33.0,22.0,-100.00,WNW,295,6.0,11.0,64,0.00,,,0.00,2.000000,,2013-01-27 15:22:00,
2013-01-27 08:32:00,33.0,22.0,-100.00,WNW,295,6.0,11.0,64,0.00,,,0.00,2.000000,,2013-01-27 15:32:00,
2013-01-27 08:53:00,40.0,25.0,-100.00,WNW,295,5.0,9.0,54,0.00,,,0.00,27.000000,,2013-01-27 15:53:00,
2013-01-27 09:02:00,40.0,25.0,-100.00,WNW,295,5.0,9.0,54,0.00,,,0.00,27.000000,,2013-01-27 16:02:00,
2013-01-27 09:12:00,40.0,25.0,-100.00,WNW,295,5.0,9.0,54,0.00,,,0.00,27.000000,,2013-01-27 16:12:00,
2013-01-27 09:21:00,40.0,25.0,-100.00,WNW,295,5.0,9.0,54,0.00,,,0.00,27.000000,,2013-01-27 16:21:00,
2013-01-27 09:32:00,40.0,25.0,-100.00,WNW,295,5.0,9.0,54,0.00,,,0.00,27.000000,,2013-01-27 16:32:00,
2013-01-27 10:02:00,44.0,28.0,-100.00,West,262,3.0,8.0,53,0.00,,,0.00,86.000000,,2013-01-27 17:02:00,
2013-01-27 10:12:00,44.0,28.0,-100.00,West,262,3.0,8.0,53,0.00,,,0.00,86.000000,,2013-01-27 17:12:00,
2013-01-27 10:22:00,44.0,28.0,-100.00,West,262,3.0,8.0,53,0.00,,,0.00,86.000000,,2013-01-27 17:22:00,
2013-01-27 10:32:00,44.0,28.0,-100.00,West,262,3.0,8.0,53,0.00,,,0.00,86.000000,,2013-01-27 17:32:00,
2013-01-27 10:53:00,50.0,29.0,-100.00,West,267,5.0,8.0,44,0.00,,,0.00,209.000000,,2013-01-27 17:53:00,
2013-01-27 11:02:00,50.0,29.0,-100.00,West,267,5.0,8.0,44,0.00,,,0.00,209.000000,,2013-01-27 18:02:00,
2013-01-27 11:12:00,50.0,29.0,-100.00,West,267,5.0,8.0,44,0.00,,,0.00,209.000000,,2013-01-27 18:12:00,
2013-01-27 11:22:00,50.0,29.0,-100.00,West,267,5.0,8.0,44,0.00,,,0.00,209.000000,,2013-01-27 18:22:00,
2013-01-27 11:32:00,50.0,29.0,-100.00,West,267,5.0,8.0,44,0.00,,,0.00,209.000000,,2013-01-27 18:32:00,
2013-01-27 12:02:00,54.0,30.0,-100.00,WSW,256,4.0,11.0,40,0.00,,,0.00,285.000000,,2013-01-27 19:02:00,
2013-01-27 12:12:00,54.0,30.0,-100.00,WSW,256,4.0,11.0,40,0.00,,,0.00,285.000000,,2013-01-27 19:12:00,
2013-01-27 12:22:00,54.0,30.0,-100.00,WSW,256,4.0,11.0,40,0.00,,,0.00,285.000000,,2013-01-27 19:22:00,
2013-01-27 12:32:00,54.0,30.0,-100.00,WSW,256,4.0,11.0,40,0.00,,,0.00,285.000000,,2013-01-27 19:32:00,
2013-01-27 12:52:00,53.0,27.0,-100.00,NE,40,6.0,10.0,37,0.00,,,0.00,446.000000,,2013-01-27 19:52:00,
2013-01-27 13:02:00,53.0,27.0,-100.00,NE,40,6.0,10.0,37,0.00,,,0.00,446.000000,,2013-01-27 20:02:00,
2013-01-27 13:12:00,53.0,27.0,-100.00,NE,40,6.0,10.0,37,0.00,,,0.00,446.000000,,2013-01-27 20:12:00,
2013-01-27 13:22:00,53.0,27.0,-100.00,NE,40,6.0,10.0,37,0.00,,,0.00,446.000000,,2013-01-27 20:22:00,
2013-01-27 13:32:00,53.0,27.0,-100.00,NE,40,6.0,10.0,37,0.00,,,0.00,446.000000,,2013-01-27 20:32:00,
2013-01-27 14:02:00,49.0,27.0,-100.00,East,80,6.0,12.0,42,0.00,,,0.00,244.000000,,2013-01-27 21:02:00,
2013-01-27 14:12:00,49.0,27.0,-100.00,East,80,6.0,12.0,42,0.00,,,0.00,244.000000,,2013-01-27 21:12:00,
2013-01-27 14:22:00,49.0,27.0,-100.00,East,80,6.0,12.0,42,0.00,,,0.00,244.000000,,2013-01-27 21:22:00,
2013-01-27 14:33:00,49.0,27.0,-100.00,East,80,6.0,12.0,42,0.00,,,0.00,244.000000,,2013-01-27 21:33:00,
2013-01-27 15:02:00,47.0,25.0,-100.00,NE,46,6.0,12.0,42,0.00,,,0.00,298.000000,,2013-01-27 22:02:00,
2013-01-27 15:12:00,47.0,25.0,-100.00,NE,46,6.0,12.0,42,0.00,,,0.00,298.000000,,2013-01-27 22:12:00,
2013-01-27 15:22:00,47.0,25.0,-100.00,NE,46,6.0,12.0,42,0.00,,,0.00,298.000000,,2013-01-27 22:22:00,
2013-01-27 15:32:00,47.0,25.0,-100.00,NE,46,6.0,12.0,42,0.00,,,0.00,298.000000,,2013-01-27 22:32:00,
2013-01-27 15:52:00,42.0,27.0,-100.00,ENE,74,6.0,11.0,56,0.00,,,0.00,56.000000,,2013-01-27 22:52:00,
2013-01-27 16:02:00,42.0,27.0,-100.00,ENE,74,6.0,11.0,56,0.00,,,0.00,56.000000,,2013-01-27 23:02:00,
2013-01-27 16:12:00,42.0,27.0,-100.00,ENE,74,6.0,11.0,56,0.00,,,0.00,56.000000,,2013-01-27 23:12:00,
2013-01-27 16:21:00,42.0,27.0,-100.00,ENE,74,6.0,11.0,56,0.00,,,0.00,56.000000,,2013-01-27 23:21:00,
2013-01-27 16:32:00,42.0,27.0,-100.00,ENE,74,6.0,11.0,56,0.00,,,0.00,56.000000,,2013-01-27 23:32:00,
2013-01-27 16:53:00,38.0,27.0,-100.00,ENE,68,4.0,9.0,65,0.00,,,0.00,19.000000,,2013-01-27 23:53:00,
2013-01-27 17:02:00,38.0,27.0,-100.00,ENE,68,4.0,9.0,65,0.00,,,0.00,19.000000,,2013-01-28 00:02:00,
2013-01-27 17:11:00,38.0,27.0,-100.00,ENE,68,4.0,9.0,65,0.00,,,0.00,19.000000,,2013-01-28 00:11:00,
2013-01-27 17:21:00,38.0,27.0,-100.00,ENE,68,4.0,9.0,65,0.00,,,0.00,19.000000,,2013-01-28 00:21:00,
2013-01-27 17:32:00,38.0,27.0,-100.00,ENE,68,4.0,9.0,65,0.00,,,0.00,19.000000,,2013-01-28 00:32:00,
2013-01-27 17:52:00,33.0,27.0,-100.00,WNW,284,1.0,6.0,78,0.00,,,0.00,4.000000,,2013-01-28 00:52:00,
2013-01-27 18:02:00,33.0,27.0,-100.00,WNW,284,1.0,6.0,78,0.00,,,0.00,4.000000,,2013-01-28 01:02:00,
2013-01-27 18:11:00,33.0,27.0,-100.00,WNW,284,1.0,6.0,78,0.00,,,0.00,4.000000,,2013-01-28 01:11:00,
2013-01-27 18:22:00,33.0,27.0,-100.00,WNW,284,1.0,6.0,78,0.00,,,0.00,4.000000,,2013-01-28 01:22:00,
2013-01-27 18:33:00,33.0,27.0,-100.00,WNW,284,1.0,6.0,78,0.00,,,0.00,4.000000,,2013-01-28 01:33:00,
2013-01-27 19:02:00,31.0,26.0,-100.00,WNW,285,3.0,5.0,81,0.00,,,0.00,0.000000,,2013-01-28 02:02:00,
2013-01-27 19:11:00,31.0,26.0,-100.00,WNW,285,3.0,5.0,81,0.00,,,0.00,0.000000,,2013-01-28 02:11:00,
2013-01-27 19:22:00,31.0,26.0,-100.00,WNW,285,3.0,5.0,81,0.00,,,0.00,0.000000,,2013-01-28 02:22:00,
2013-01-27 19:32:00,31.0,26.0,-100.00,WNW,285,3.0,5.0,81,0.00,,,0.00,0.000000,,2013-01-28 02:32:00,
2013-01-27 20:02:00,28.0,25.0,-100.00,SW,215,2.0,7.0,88,0.00,,,0.00,0.000000,,2013-01-28 03:02:00,
2013-01-27 20:12:00,28.0,25.0,-100.00,SW,215,2.0,7.0,88,0.00,,,0.00,0.000000,,2013-01-28 03:12:00,
2013-01-27 20:22:00,28.0,25.0,-100.00,SW,215,2.0,7.0,88,0.00,,,0.00,0.000000,,2013-01-28 03:22:00,
2013-01-27 20:32:00,28.0,25.0,-100.00,SW,215,2.0,7.0,88,0.00,,,0.00,0.000000,,2013-01-28 03:32:00,
2013-01-27 21:02:00,28.0,25.0,-100.00,WNW,290,4.0,5.0,89,0.00,,,0.00,0.000000,,2013-01-28 04:02:00,
2013-01-27 21:11:00,28.0,25.0,-100.00,WNW,290,4.0,5.0,89,0.00,,,0.00,0.000000,,2013-01-28 04:11:00,
2013-01-27 21:22:00,28.0,25.0,-100.00,WNW,290,4.0,5.0,89,0.00,,,0.00,0.000000,,2013-01-28 04:22:00,
2013-01-27 21:32:00,28.0,25.0,-100.00,WNW,290,4.0,5.0,89,0.00,,,0.00,0.000000,,2013-01-28 04:32:00,
2013-01-27 21:52:00,26.0,24.0,-100.00,NW,321,3.0,4.0,91,0.00,,,0.00,0.000000,,2013-01-28 04:52:00,
2013-01-27 22:04:00,26.0,24.0,-100.00,NW,321,3.0,4.0,91,0.00,,,0.00,0.000000,,2013-01-28 05:04:00,
2013-01-27 22:11:00,26.0,24.0,-100.00,NW,321,3.0,4.0,91,0.00,,,0.00,0.000000,,2013-01-28 05:11:00,
2013-01-27 22:21:00,26.0,24.0,-100.00,NW,321,3.0,4.0,91,0.00,,,0.00,0.000000,,2013-01-28 05:21:00,
2013-01-27 22:32:00,26.0,24.0,-100.00,NW,321,3.0,4.0,91,0.00,,,0.00,0.000000,,2013-01-28 05:32:00,
2013-01-27 23:02:00,26.0,24.0,-100.00,NW,311,2.0,5.0,93,0.00,,,0.00,1.000000,,2013-01-28 06:02:00,
2013-01-27 23:11:00,26.0,24.0,-100.00,NW,311,2.0,5.0,93,0.00,,,0.00,1.000000,,2013-01-28 06:11:00,
2013-01-27 23:22:00,26.0,24.0,-100.00,NW,311,2.0,5.0,93,0.00,,,0.00,1.000000,,2013-01-28 06:22:00,
2013-01-27 23:32:00,26.0,24.0,-100.00,NW,311,2.0,5.0,93,0.00,,,0.00,1.000000,,2013-01-28 06:32:00,